sensor_id;sensor_type;location;lat;lon;timestamp;temperature;humidity
49829;DHT22;35723;51.194;5.112;2023-06-14T00:00:51;22.40;84.70
49829;DHT22;35723;51.194;5.112;2023-06-14T00:03:18;22.30;85.30
49829;DHT22;35723;51.194;5.112;2023-06-14T00:05:47;22.30;84.80
49829;DHT22;35723;51.194;5.112;2023-06-14T00:08:14;22.20;85.00
49829;DHT22;35723;51.194;5.112;2023-06-14T00:10:40;22.20;85.00
49829;DHT22;35723;51.194;5.112;2023-06-14T00:13:09;22.10;85.70
49829;DHT22;35723;51.194;5.112;2023-06-14T00:15:35;22.10;85.30
49829;DHT22;35723;51.194;5.112;2023-06-14T00:18:02;22.10;85.30
49829;DHT22;35723;51.194;5.112;2023-06-14T00:20:28;22.10;85.20
49829;DHT22;35723;51.194;5.112;2023-06-14T00:22:54;22.00;84.70
49829;DHT22;35723;51.194;5.112;2023-06-14T00:25:22;22.10;84.50
49829;DHT22;35723;51.194;5.112;2023-06-14T00:27:49;22.10;84.70
49829;DHT22;35723;51.194;5.112;2023-06-14T00:30:15;22.10;84.70
49829;DHT22;35723;51.194;5.112;2023-06-14T00:32:40;22.10;84.10
49829;DHT22;35723;51.194;5.112;2023-06-14T00:35:08;22.10;84.00
49829;DHT22;35723;51.194;5.112;2023-06-14T00:37:34;22.10;84.00
49829;DHT22;35723;51.194;5.112;2023-06-14T00:40:00;22.10;84.00
49829;DHT22;35723;51.194;5.112;2023-06-14T00:42:28;22.00;83.70
49829;DHT22;35723;51.194;5.112;2023-06-14T00:44:54;22.10;83.80
49829;DHT22;35723;51.194;5.112;2023-06-14T00:47:20;22.00;83.60
49829;DHT22;35723;51.194;5.112;2023-06-14T00:49:47;22.10;83.40
49829;DHT22;35723;51.194;5.112;2023-06-14T00:52:14;22.10;83.50
49829;DHT22;35723;51.194;5.112;2023-06-14T00:54:41;22.10;83.80
49829;DHT22;35723;51.194;5.112;2023-06-14T00:57:08;22.10;84.00
49829;DHT22;35723;51.194;5.112;2023-06-14T00:59:36;22.10;83.70
49829;DHT22;35723;51.194;5.112;2023-06-14T01:02:04;22.00;83.60
49829;DHT22;35723;51.194;5.112;2023-06-14T01:04:30;22.00;83.80
49829;DHT22;35723;51.194;5.112;2023-06-14T01:07:15;22.00;83.90
49829;DHT22;35723;51.194;5.112;2023-06-14T01:15:18;21.90;84.20
49829;DHT22;35723;51.194;5.112;2023-06-14T01:17:46;21.80;84.20
49829;DHT22;35723;51.194;5.112;2023-06-14T01:20:17;21.80;84.40
49829;DHT22;35723;51.194;5.112;2023-06-14T01:22:52;21.80;84.40
49829;DHT22;35723;51.194;5.112;2023-06-14T01:25:21;21.80;83.90
49829;DHT22;35723;51.194;5.112;2023-06-14T01:27:58;21.70;83.90
49829;DHT22;35723;51.194;5.112;2023-06-14T01:30:25;21.80;84.10
49829;DHT22;35723;51.194;5.112;2023-06-14T01:32:53;21.80;83.60
49829;DHT22;35723;51.194;5.112;2023-06-14T01:35:20;21.80;83.80
49829;DHT22;35723;51.194;5.112;2023-06-14T01:37:48;21.80;83.00
49829;DHT22;35723;51.194;5.112;2023-06-14T01:40:15;21.80;82.10
49829;DHT22;35723;51.194;5.112;2023-06-14T01:42:41;21.80;82.60
49829;DHT22;35723;51.194;5.112;2023-06-14T01:45:09;21.90;82.90
49829;DHT22;35723;51.194;5.112;2023-06-14T01:47:35;21.80;82.10
49829;DHT22;35723;51.194;5.112;2023-06-14T01:50:02;21.90;82.00
49829;DHT22;35723;51.194;5.112;2023-06-14T01:52:28;21.90;82.30
49829;DHT22;35723;51.194;5.112;2023-06-14T01:54:54;21.90;82.20
49829;DHT22;35723;51.194;5.112;2023-06-14T01:57:20;21.90;82.30
49829;DHT22;35723;51.194;5.112;2023-06-14T01:59:47;21.80;82.30
49829;DHT22;35723;51.194;5.112;2023-06-14T02:02:14;21.70;82.00
49829;DHT22;35723;51.194;5.112;2023-06-14T02:04:41;21.80;82.30
49829;DHT22;35723;51.194;5.112;2023-06-14T02:07:07;21.80;82.70
49829;DHT22;35723;51.194;5.112;2023-06-14T02:09:33;21.70;82.90
49829;DHT22;35723;51.194;5.112;2023-06-14T02:11:59;21.60;82.10
49829;DHT22;35723;51.194;5.112;2023-06-14T02:14:25;21.60;82.20
49829;DHT22;35723;51.194;5.112;2023-06-14T02:16:51;21.60;82.40
49829;DHT22;35723;51.194;5.112;2023-06-14T02:19:19;21.60;82.90
49829;DHT22;35723;51.194;5.112;2023-06-14T02:21:45;21.60;83.60
49829;DHT22;35723;51.194;5.112;2023-06-14T02:24:11;21.50;83.20
49829;DHT22;35723;51.194;5.112;2023-06-14T02:26:37;21.40;83.20
49829;DHT22;35723;51.194;5.112;2023-06-14T02:29:04;21.40;83.60
49829;DHT22;35723;51.194;5.112;2023-06-14T02:31:33;21.30;83.60
49829;DHT22;35723;51.194;5.112;2023-06-14T02:33:59;21.30;83.90
49829;DHT22;35723;51.194;5.112;2023-06-14T02:36:25;21.20;83.70
49829;DHT22;35723;51.194;5.112;2023-06-14T02:38:50;21.20;84.30
49829;DHT22;35723;51.194;5.112;2023-06-14T02:41:16;21.10;84.00
49829;DHT22;35723;51.194;5.112;2023-06-14T02:43:43;21.10;84.20
49829;DHT22;35723;51.194;5.112;2023-06-14T02:46:09;21.00;84.40
49829;DHT22;35723;51.194;5.112;2023-06-14T02:48:34;21.00;84.70
49829;DHT22;35723;51.194;5.112;2023-06-14T02:51:00;20.90;84.60
49829;DHT22;35723;51.194;5.112;2023-06-14T02:53:25;20.90;84.40
49829;DHT22;35723;51.194;5.112;2023-06-14T02:55:51;20.90;83.70
49829;DHT22;35723;51.194;5.112;2023-06-14T02:58:17;20.80;84.80
49829;DHT22;35723;51.194;5.112;2023-06-14T03:00:43;20.80;85.30
49829;DHT22;35723;51.194;5.112;2023-06-14T03:03:09;20.60;85.00
49829;DHT22;35723;51.194;5.112;2023-06-14T03:05:43;20.60;84.60
49829;DHT22;35723;51.194;5.112;2023-06-14T03:08:12;20.60;84.60
49829;DHT22;35723;51.194;5.112;2023-06-14T03:10:42;20.60;85.10
49829;DHT22;35723;51.194;5.112;2023-06-14T03:13:08;20.60;85.10
49829;DHT22;35723;51.194;5.112;2023-06-14T03:15:36;20.60;84.80
49829;DHT22;35723;51.194;5.112;2023-06-14T03:18:01;20.60;84.90
49829;DHT22;35723;51.194;5.112;2023-06-14T03:20:29;20.60;85.50
49829;DHT22;35723;51.194;5.112;2023-06-14T03:22:59;20.50;85.20
49829;DHT22;35723;51.194;5.112;2023-06-14T03:25:25;20.50;85.50
49829;DHT22;35723;51.194;5.112;2023-06-14T03:27:51;20.40;85.60
49829;DHT22;35723;51.194;5.112;2023-06-14T03:30:17;20.40;85.70
49829;DHT22;35723;51.194;5.112;2023-06-14T03:32:43;20.40;86.40
49829;DHT22;35723;51.194;5.112;2023-06-14T03:35:08;20.30;85.70
49829;DHT22;35723;51.194;5.112;2023-06-14T03:37:35;20.30;86.00
49829;DHT22;35723;51.194;5.112;2023-06-14T03:40:01;20.30;86.60
49829;DHT22;35723;51.194;5.112;2023-06-14T03:42:29;20.30;86.40
49829;DHT22;35723;51.194;5.112;2023-06-14T03:44:54;20.20;86.80
49829;DHT22;35723;51.194;5.112;2023-06-14T03:47:20;20.20;87.10
49829;DHT22;35723;51.194;5.112;2023-06-14T03:49:46;20.10;87.10
49829;DHT22;35723;51.194;5.112;2023-06-14T03:52:11;20.10;87.80
49829;DHT22;35723;51.194;5.112;2023-06-14T03:54:37;20.00;87.50
49829;DHT22;35723;51.194;5.112;2023-06-14T03:57:02;20.00;87.80
49829;DHT22;35723;51.194;5.112;2023-06-14T03:59:28;20.00;87.80
49829;DHT22;35723;51.194;5.112;2023-06-14T04:01:55;20.00;88.50
49829;DHT22;35723;51.194;5.112;2023-06-14T04:04:20;19.90;88.20
49829;DHT22;35723;51.194;5.112;2023-06-14T04:06:46;20.00;88.50
49829;DHT22;35723;51.194;5.112;2023-06-14T04:09:13;19.90;88.60
49829;DHT22;35723;51.194;5.112;2023-06-14T04:11:39;19.90;88.70
49829;DHT22;35723;51.194;5.112;2023-06-14T04:14:05;19.90;88.70
49829;DHT22;35723;51.194;5.112;2023-06-14T04:16:31;19.90;89.40
49829;DHT22;35723;51.194;5.112;2023-06-14T04:18:57;19.90;89.80
49829;DHT22;35723;51.194;5.112;2023-06-14T04:21:23;19.90;90.00
49829;DHT22;35723;51.194;5.112;2023-06-14T04:23:49;19.90;90.30
49829;DHT22;35723;51.194;5.112;2023-06-14T04:26:18;19.90;90.00
49829;DHT22;35723;51.194;5.112;2023-06-14T04:28:45;19.90;90.00
49829;DHT22;35723;51.194;5.112;2023-06-14T04:31:12;19.90;90.00
49829;DHT22;35723;51.194;5.112;2023-06-14T04:33:38;20.00;89.90
49829;DHT22;35723;51.194;5.112;2023-06-14T04:36:11;19.90;89.50
49829;DHT22;35723;51.194;5.112;2023-06-14T04:38:38;20.00;89.70
49829;DHT22;35723;51.194;5.112;2023-06-14T04:41:04;20.00;89.40
49829;DHT22;35723;51.194;5.112;2023-06-14T04:43:31;20.10;90.00
49829;DHT22;35723;51.194;5.112;2023-06-14T04:46:06;20.10;89.90
49829;DHT22;35723;51.194;5.112;2023-06-14T04:48:39;20.10;89.90
49829;DHT22;35723;51.194;5.112;2023-06-14T04:51:07;20.10;89.70
49829;DHT22;35723;51.194;5.112;2023-06-14T04:53:33;20.20;89.90
49829;DHT22;35723;51.194;5.112;2023-06-14T04:55:59;20.20;90.00
49829;DHT22;35723;51.194;5.112;2023-06-14T04:58:29;20.30;89.60
49829;DHT22;35723;51.194;5.112;2023-06-14T05:00:55;20.30;89.50
49829;DHT22;35723;51.194;5.112;2023-06-14T05:03:22;20.30;89.60
49829;DHT22;35723;51.194;5.112;2023-06-14T05:05:49;20.30;89.20
49829;DHT22;35723;51.194;5.112;2023-06-14T05:08:16;20.40;89.70
49829;DHT22;35723;51.194;5.112;2023-06-14T05:10:42;20.40;89.80
49829;DHT22;35723;51.194;5.112;2023-06-14T05:13:07;20.40;89.50
49829;DHT22;35723;51.194;5.112;2023-06-14T05:15:33;20.50;89.10
49829;DHT22;35723;51.194;5.112;2023-06-14T05:17:59;20.50;90.00
49829;DHT22;35723;51.194;5.112;2023-06-14T05:20:25;20.60;89.90
49829;DHT22;35723;51.194;5.112;2023-06-14T05:22:54;20.60;89.80
49829;DHT22;35723;51.194;5.112;2023-06-14T05:25:22;20.60;90.00
49829;DHT22;35723;51.194;5.112;2023-06-14T05:27:48;20.60;89.80
49829;DHT22;35723;51.194;5.112;2023-06-14T05:30:15;20.70;89.80
49829;DHT22;35723;51.194;5.112;2023-06-14T05:32:41;20.70;89.40
49829;DHT22;35723;51.194;5.112;2023-06-14T05:35:07;20.80;89.10
49829;DHT22;35723;51.194;5.112;2023-06-14T05:37:33;20.80;88.70
49829;DHT22;35723;51.194;5.112;2023-06-14T05:39:59;20.90;89.10
49829;DHT22;35723;51.194;5.112;2023-06-14T05:42:25;20.90;89.00
49829;DHT22;35723;51.194;5.112;2023-06-14T05:44:50;21.00;89.40
49829;DHT22;35723;51.194;5.112;2023-06-14T05:47:16;21.10;89.20
49829;DHT22;35723;51.194;5.112;2023-06-14T05:49:42;21.10;89.70
49829;DHT22;35723;51.194;5.112;2023-06-14T05:52:08;21.20;89.20
49829;DHT22;35723;51.194;5.112;2023-06-14T05:54:33;21.20;89.00
49829;DHT22;35723;51.194;5.112;2023-06-14T05:56:59;21.20;87.90
49829;DHT22;35723;51.194;5.112;2023-06-14T05:59:27;21.20;87.70
49829;DHT22;35723;51.194;5.112;2023-06-14T06:01:53;21.30;87.60
49829;DHT22;35723;51.194;5.112;2023-06-14T06:04:18;21.30;87.30
49829;DHT22;35723;51.194;5.112;2023-06-14T06:06:45;21.40;87.30
49829;DHT22;35723;51.194;5.112;2023-06-14T06:09:12;21.50;86.90
49829;DHT22;35723;51.194;5.112;2023-06-14T06:11:37;21.50;86.50
49829;DHT22;35723;51.194;5.112;2023-06-14T06:14:03;21.60;86.40
49829;DHT22;35723;51.194;5.112;2023-06-14T06:16:29;21.60;86.10
49829;DHT22;35723;51.194;5.112;2023-06-14T06:18:54;21.60;85.70
49829;DHT22;35723;51.194;5.112;2023-06-14T06:21:20;21.70;85.20
49829;DHT22;35723;51.194;5.112;2023-06-14T06:23:45;21.80;85.20
49829;DHT22;35723;51.194;5.112;2023-06-14T06:26:11;21.80;85.00
49829;DHT22;35723;51.194;5.112;2023-06-14T06:28:37;21.80;84.90
49829;DHT22;35723;51.194;5.112;2023-06-14T06:31:02;21.90;84.90
49829;DHT22;35723;51.194;5.112;2023-06-14T06:33:28;21.90;84.40
49829;DHT22;35723;51.194;5.112;2023-06-14T06:35:54;22.00;84.30
49829;DHT22;35723;51.194;5.112;2023-06-14T06:38:19;22.00;84.20
49829;DHT22;35723;51.194;5.112;2023-06-14T06:40:45;22.10;84.00
49829;DHT22;35723;51.194;5.112;2023-06-14T06:43:11;22.10;83.80
49829;DHT22;35723;51.194;5.112;2023-06-14T06:45:39;22.10;83.80
49829;DHT22;35723;51.194;5.112;2023-06-14T06:48:05;22.20;84.30
49829;DHT22;35723;51.194;5.112;2023-06-14T06:50:31;22.20;84.20
49829;DHT22;35723;51.194;5.112;2023-06-14T06:52:57;22.20;84.30
49829;DHT22;35723;51.194;5.112;2023-06-14T06:55:23;22.30;84.50
49829;DHT22;35723;51.194;5.112;2023-06-14T06:57:48;22.40;84.20
49829;DHT22;35723;51.194;5.112;2023-06-14T07:00:15;22.40;84.10
49829;DHT22;35723;51.194;5.112;2023-06-14T07:02:43;22.50;83.80
49829;DHT22;35723;51.194;5.112;2023-06-14T07:05:08;22.60;84.10
49829;DHT22;35723;51.194;5.112;2023-06-14T07:07:34;22.70;83.70
49829;DHT22;35723;51.194;5.112;2023-06-14T07:10:00;22.70;83.30
49829;DHT22;35723;51.194;5.112;2023-06-14T07:12:29;22.80;83.40
49829;DHT22;35723;51.194;5.112;2023-06-14T07:14:55;22.80;83.10
49829;DHT22;35723;51.194;5.112;2023-06-14T07:17:21;22.90;82.60
49829;DHT22;35723;51.194;5.112;2023-06-14T07:19:46;23.00;82.70
49829;DHT22;35723;51.194;5.112;2023-06-14T07:22:12;23.00;82.80
49829;DHT22;35723;51.194;5.112;2023-06-14T07:24:37;23.10;82.80
49829;DHT22;35723;51.194;5.112;2023-06-14T07:27:04;23.10;82.50
49829;DHT22;35723;51.194;5.112;2023-06-14T07:29:30;23.20;82.40
49829;DHT22;35723;51.194;5.112;2023-06-14T07:31:55;23.20;82.20
49829;DHT22;35723;51.194;5.112;2023-06-14T07:34:21;23.30;82.40
49829;DHT22;35723;51.194;5.112;2023-06-14T07:36:46;23.30;83.00
49829;DHT22;35723;51.194;5.112;2023-06-14T07:39:12;23.40;83.10
49829;DHT22;35723;51.194;5.112;2023-06-14T07:41:39;23.50;81.40
49829;DHT22;35723;51.194;5.112;2023-06-14T07:44:04;23.50;80.10
49829;DHT22;35723;51.194;5.112;2023-06-14T07:46:30;23.60;79.80
49829;DHT22;35723;51.194;5.112;2023-06-14T07:48:56;23.70;80.60
49829;DHT22;35723;51.194;5.112;2023-06-14T07:51:22;23.70;80.40
49829;DHT22;35723;51.194;5.112;2023-06-14T07:53:49;23.80;80.10
49829;DHT22;35723;51.194;5.112;2023-06-14T07:56:15;23.90;80.80
49829;DHT22;35723;51.194;5.112;2023-06-14T07:58:40;23.90;80.10
49829;DHT22;35723;51.194;5.112;2023-06-14T08:01:06;24.00;79.70
49829;DHT22;35723;51.194;5.112;2023-06-14T08:03:33;24.00;78.90
49829;DHT22;35723;51.194;5.112;2023-06-14T08:06:00;24.10;79.00
49829;DHT22;35723;51.194;5.112;2023-06-14T08:08:26;24.20;78.90
49829;DHT22;35723;51.194;5.112;2023-06-14T08:10:52;24.20;78.30
49829;DHT22;35723;51.194;5.112;2023-06-14T08:13:18;24.20;77.90
49829;DHT22;35723;51.194;5.112;2023-06-14T08:15:43;24.30;78.40
49829;DHT22;35723;51.194;5.112;2023-06-14T08:18:09;24.30;78.50
49829;DHT22;35723;51.194;5.112;2023-06-14T08:20:35;24.40;78.50
49829;DHT22;35723;51.194;5.112;2023-06-14T08:23:03;24.40;77.80
49829;DHT22;35723;51.194;5.112;2023-06-14T08:25:29;24.50;78.10
49829;DHT22;35723;51.194;5.112;2023-06-14T08:27:55;24.60;78.70
49829;DHT22;35723;51.194;5.112;2023-06-14T08:30:21;24.70;78.20
49829;DHT22;35723;51.194;5.112;2023-06-14T08:32:47;24.70;77.80
49829;DHT22;35723;51.194;5.112;2023-06-14T08:35:13;24.80;77.90
49829;DHT22;35723;51.194;5.112;2023-06-14T08:37:40;24.80;77.50
49829;DHT22;35723;51.194;5.112;2023-06-14T08:40:27;24.80;77.40
49829;DHT22;35723;51.194;5.112;2023-06-14T08:42:55;24.90;76.70
49829;DHT22;35723;51.194;5.112;2023-06-14T08:45:21;25.00;76.90
49829;DHT22;35723;51.194;5.112;2023-06-14T08:47:47;25.00;76.50
49829;DHT22;35723;51.194;5.112;2023-06-14T08:50:27;25.10;76.70
49829;DHT22;35723;51.194;5.112;2023-06-14T08:52:57;25.20;76.40
49829;DHT22;35723;51.194;5.112;2023-06-14T08:55:27;25.20;76.00
49829;DHT22;35723;51.194;5.112;2023-06-14T08:57:57;25.20;75.40
49829;DHT22;35723;51.194;5.112;2023-06-14T09:00:24;25.40;75.70
49829;DHT22;35723;51.194;5.112;2023-06-14T09:02:51;25.40;75.50
49829;DHT22;35723;51.194;5.112;2023-06-14T09:05:22;25.40;74.10
49829;DHT22;35723;51.194;5.112;2023-06-14T09:07:48;25.50;74.00
49829;DHT22;35723;51.194;5.112;2023-06-14T09:10:16;25.60;72.80
49829;DHT22;35723;51.194;5.112;2023-06-14T09:12:42;25.60;73.50
49829;DHT22;35723;51.194;5.112;2023-06-14T09:15:09;25.70;74.10
49829;DHT22;35723;51.194;5.112;2023-06-14T09:17:35;25.70;73.60
49829;DHT22;35723;51.194;5.112;2023-06-14T09:20:02;25.80;72.00
49829;DHT22;35723;51.194;5.112;2023-06-14T09:22:32;25.80;72.10
49829;DHT22;35723;51.194;5.112;2023-06-14T09:24:58;25.90;72.50
49829;DHT22;35723;51.194;5.112;2023-06-14T09:27:26;25.90;72.30
49829;DHT22;35723;51.194;5.112;2023-06-14T09:29:52;26.00;71.30
49829;DHT22;35723;51.194;5.112;2023-06-14T09:32:18;26.10;70.90
49829;DHT22;35723;51.194;5.112;2023-06-14T09:34:45;26.10;71.30
49829;DHT22;35723;51.194;5.112;2023-06-14T09:37:11;26.20;71.10
49829;DHT22;35723;51.194;5.112;2023-06-14T09:39:51;26.20;70.90
49829;DHT22;35723;51.194;5.112;2023-06-14T09:42:18;26.40;70.80
49829;DHT22;35723;51.194;5.112;2023-06-14T09:44:49;26.40;70.60
49829;DHT22;35723;51.194;5.112;2023-06-14T09:47:15;26.50;70.70
49829;DHT22;35723;51.194;5.112;2023-06-14T09:49:42;26.60;70.00
49829;DHT22;35723;51.194;5.112;2023-06-14T09:52:15;26.60;69.20
49829;DHT22;35723;51.194;5.112;2023-06-14T09:54:42;26.70;70.10
49829;DHT22;35723;51.194;5.112;2023-06-14T09:57:11;26.70;68.80
49829;DHT22;35723;51.194;5.112;2023-06-14T09:59:43;26.80;69.10
49829;DHT22;35723;51.194;5.112;2023-06-14T10:02:34;26.80;69.30
49829;DHT22;35723;51.194;5.112;2023-06-14T10:05:06;26.90;69.40
49829;DHT22;35723;51.194;5.112;2023-06-14T10:07:38;26.90;69.50
49829;DHT22;35723;51.194;5.112;2023-06-14T10:10:06;27.00;69.50
49829;DHT22;35723;51.194;5.112;2023-06-14T10:12:32;27.10;68.90
49829;DHT22;35723;51.194;5.112;2023-06-14T10:14:58;27.10;69.20
49829;DHT22;35723;51.194;5.112;2023-06-14T10:17:33;27.20;69.00
49829;DHT22;35723;51.194;5.112;2023-06-14T10:22:35;27.40;68.20
49829;DHT22;35723;51.194;5.112;2023-06-14T10:25:07;27.40;67.60
49829;DHT22;35723;51.194;5.112;2023-06-14T10:27:37;27.50;67.10
49829;DHT22;35723;51.194;5.112;2023-06-14T10:30:04;27.50;66.60
49829;DHT22;35723;51.194;5.112;2023-06-14T10:32:31;27.60;67.90
49829;DHT22;35723;51.194;5.112;2023-06-14T10:34:59;27.70;68.00
49829;DHT22;35723;51.194;5.112;2023-06-14T10:37:25;27.80;67.40
49829;DHT22;35723;51.194;5.112;2023-06-14T10:39:51;27.80;66.10
49829;DHT22;35723;51.194;5.112;2023-06-14T10:42:18;27.80;65.20
49829;DHT22;35723;51.194;5.112;2023-06-14T10:44:55;27.90;64.40
49829;DHT22;35723;51.194;5.112;2023-06-14T10:47:36;28.00;64.20
49829;DHT22;35723;51.194;5.112;2023-06-14T10:50:06;28.00;64.70
49829;DHT22;35723;51.194;5.112;2023-06-14T10:52:38;28.00;64.90
49829;DHT22;35723;51.194;5.112;2023-06-14T10:57:53;28.10;63.80
49829;DHT22;35723;51.194;5.112;2023-06-14T11:00:24;28.10;61.90
49829;DHT22;35723;51.194;5.112;2023-06-14T11:05:29;28.20;62.30
49829;DHT22;35723;51.194;5.112;2023-06-14T11:07:58;28.20;63.10
49829;DHT22;35723;51.194;5.112;2023-06-14T11:10:40;28.30;62.30
49829;DHT22;35723;51.194;5.112;2023-06-14T11:13:09;28.30;61.90
49829;DHT22;35723;51.194;5.112;2023-06-14T11:15:37;28.30;61.90
49829;DHT22;35723;51.194;5.112;2023-06-14T11:18:05;28.40;62.00
49829;DHT22;35723;51.194;5.112;2023-06-14T11:20:32;28.50;60.80
49829;DHT22;35723;51.194;5.112;2023-06-14T11:22:59;28.50;60.50
49829;DHT22;35723;51.194;5.112;2023-06-14T11:25:26;28.50;60.90
49829;DHT22;35723;51.194;5.112;2023-06-14T11:27:54;28.60;61.30
49829;DHT22;35723;51.194;5.112;2023-06-14T11:30:21;28.60;60.10
49829;DHT22;35723;51.194;5.112;2023-06-14T11:32:53;28.60;59.90
49829;DHT22;35723;51.194;5.112;2023-06-14T11:35:21;28.70;59.50
49829;DHT22;35723;51.194;5.112;2023-06-14T11:37:52;28.70;60.20
49829;DHT22;35723;51.194;5.112;2023-06-14T11:40:18;28.70;59.40
49829;DHT22;35723;51.194;5.112;2023-06-14T11:42:43;28.80;59.90
49829;DHT22;35723;51.194;5.112;2023-06-14T11:45:11;28.80;60.00
49829;DHT22;35723;51.194;5.112;2023-06-14T11:47:38;28.90;59.60
49829;DHT22;35723;51.194;5.112;2023-06-14T11:50:06;28.90;59.30
49829;DHT22;35723;51.194;5.112;2023-06-14T11:52:32;29.00;59.70
49829;DHT22;35723;51.194;5.112;2023-06-14T11:54:58;29.00;59.20
49829;DHT22;35723;51.194;5.112;2023-06-14T11:57:25;29.10;59.50
49829;DHT22;35723;51.194;5.112;2023-06-14T11:59:51;29.10;59.50
49829;DHT22;35723;51.194;5.112;2023-06-14T12:02:18;29.10;59.30
49829;DHT22;35723;51.194;5.112;2023-06-14T12:04:47;29.20;58.80
49829;DHT22;35723;51.194;5.112;2023-06-14T12:07:17;29.20;59.40
49829;DHT22;35723;51.194;5.112;2023-06-14T12:12:23;29.30;59.30
49829;DHT22;35723;51.194;5.112;2023-06-14T12:14:51;29.20;59.40
49829;DHT22;35723;51.194;5.112;2023-06-14T12:17:18;29.20;58.20
49829;DHT22;35723;51.194;5.112;2023-06-14T12:19:45;29.20;58.80
49829;DHT22;35723;51.194;5.112;2023-06-14T12:22:12;29.20;58.70
49829;DHT22;35723;51.194;5.112;2023-06-14T12:24:39;29.20;60.10
49829;DHT22;35723;51.194;5.112;2023-06-14T12:27:05;29.30;59.50
49829;DHT22;35723;51.194;5.112;2023-06-14T12:29:34;29.30;59.40
49829;DHT22;35723;51.194;5.112;2023-06-14T12:32:01;29.40;59.50
49829;DHT22;35723;51.194;5.112;2023-06-14T12:34:27;29.40;60.00
49829;DHT22;35723;51.194;5.112;2023-06-14T12:36:53;29.40;60.40
49829;DHT22;35723;51.194;5.112;2023-06-14T12:39:20;29.50;60.00
49829;DHT22;35723;51.194;5.112;2023-06-14T12:41:46;29.60;59.90
49829;DHT22;35723;51.194;5.112;2023-06-14T12:44:12;29.60;59.90
49829;DHT22;35723;51.194;5.112;2023-06-14T12:46:39;29.60;59.90
49829;DHT22;35723;51.194;5.112;2023-06-14T12:49:07;29.70;59.90
49829;DHT22;35723;51.194;5.112;2023-06-14T12:51:33;29.60;59.30
49829;DHT22;35723;51.194;5.112;2023-06-14T12:53:59;29.60;58.90
49829;DHT22;35723;51.194;5.112;2023-06-14T12:56:24;29.70;59.20
49829;DHT22;35723;51.194;5.112;2023-06-14T12:58:51;29.60;59.70
49829;DHT22;35723;51.194;5.112;2023-06-14T13:01:17;29.70;59.80
49829;DHT22;35723;51.194;5.112;2023-06-14T13:03:43;29.70;58.00
49829;DHT22;35723;51.194;5.112;2023-06-14T13:06:08;29.70;58.30
49829;DHT22;35723;51.194;5.112;2023-06-14T13:08:34;29.70;58.60
49829;DHT22;35723;51.194;5.112;2023-06-14T13:11:00;29.80;59.50
49829;DHT22;35723;51.194;5.112;2023-06-14T13:13:25;29.80;59.60
49829;DHT22;35723;51.194;5.112;2023-06-14T13:15:51;29.80;59.80
49829;DHT22;35723;51.194;5.112;2023-06-14T13:18:17;29.90;59.90
49829;DHT22;35723;51.194;5.112;2023-06-14T13:20:43;29.90;59.50
49829;DHT22;35723;51.194;5.112;2023-06-14T13:23:09;29.80;59.70
49829;DHT22;35723;51.194;5.112;2023-06-14T13:25:36;29.80;59.80
49829;DHT22;35723;51.194;5.112;2023-06-14T13:28:03;29.80;59.60
49829;DHT22;35723;51.194;5.112;2023-06-14T13:30:29;29.80;59.50
49829;DHT22;35723;51.194;5.112;2023-06-14T13:32:55;29.80;59.50
49829;DHT22;35723;51.194;5.112;2023-06-14T13:35:22;29.80;59.70
49829;DHT22;35723;51.194;5.112;2023-06-14T13:37:47;29.90;59.20
49829;DHT22;35723;51.194;5.112;2023-06-14T13:40:13;29.90;59.30
49829;DHT22;35723;51.194;5.112;2023-06-14T13:42:39;29.80;60.50
49829;DHT22;35723;51.194;5.112;2023-06-14T13:45:06;29.90;60.10
49829;DHT22;35723;51.194;5.112;2023-06-14T13:47:32;29.90;59.60
49829;DHT22;35723;51.194;5.112;2023-06-14T13:49:57;29.90;58.80
49829;DHT22;35723;51.194;5.112;2023-06-14T13:52:24;29.90;59.20
49829;DHT22;35723;51.194;5.112;2023-06-14T13:54:49;29.90;59.30
49829;DHT22;35723;51.194;5.112;2023-06-14T13:57:16;29.90;58.80
49829;DHT22;35723;51.194;5.112;2023-06-14T13:59:42;29.90;58.70
49829;DHT22;35723;51.194;5.112;2023-06-14T14:02:09;29.90;58.00
49829;DHT22;35723;51.194;5.112;2023-06-14T14:04:35;29.90;58.40
49829;DHT22;35723;51.194;5.112;2023-06-14T14:07:02;29.90;59.40
49829;DHT22;35723;51.194;5.112;2023-06-14T14:09:27;29.90;59.10
49829;DHT22;35723;51.194;5.112;2023-06-14T14:11:53;29.80;58.90
49829;DHT22;35723;51.194;5.112;2023-06-14T14:14:19;29.80;59.20
49829;DHT22;35723;51.194;5.112;2023-06-14T14:16:44;29.90;59.70
49829;DHT22;35723;51.194;5.112;2023-06-14T14:19:10;29.90;60.00
49829;DHT22;35723;51.194;5.112;2023-06-14T14:21:35;29.90;60.10
49829;DHT22;35723;51.194;5.112;2023-06-14T14:24:01;30.00;58.90
49829;DHT22;35723;51.194;5.112;2023-06-14T14:26:27;29.90;58.60
49829;DHT22;35723;51.194;5.112;2023-06-14T14:28:53;29.90;58.60
49829;DHT22;35723;51.194;5.112;2023-06-14T14:31:19;29.80;58.10
49829;DHT22;35723;51.194;5.112;2023-06-14T14:33:45;29.80;57.30
49829;DHT22;35723;51.194;5.112;2023-06-14T14:36:10;29.80;57.40
49829;DHT22;35723;51.194;5.112;2023-06-14T14:38:36;29.80;57.80
49829;DHT22;35723;51.194;5.112;2023-06-14T14:41:02;29.80;57.60
49829;DHT22;35723;51.194;5.112;2023-06-14T14:43:29;29.90;57.10
49829;DHT22;35723;51.194;5.112;2023-06-14T14:45:56;29.80;57.40
49829;DHT22;35723;51.194;5.112;2023-06-14T14:48:22;29.80;58.20
49829;DHT22;35723;51.194;5.112;2023-06-14T14:50:48;29.70;58.10
49829;DHT22;35723;51.194;5.112;2023-06-14T14:53:14;29.70;58.10
49829;DHT22;35723;51.194;5.112;2023-06-14T14:55:42;29.70;58.60
49829;DHT22;35723;51.194;5.112;2023-06-14T14:58:08;29.80;58.60
49829;DHT22;35723;51.194;5.112;2023-06-14T15:00:34;29.80;58.40
49829;DHT22;35723;51.194;5.112;2023-06-14T15:03:00;29.80;57.40
49829;DHT22;35723;51.194;5.112;2023-06-14T15:05:26;29.70;57.30
49829;DHT22;35723;51.194;5.112;2023-06-14T15:07:52;29.60;57.60
49829;DHT22;35723;51.194;5.112;2023-06-14T15:10:18;29.60;57.80
49829;DHT22;35723;51.194;5.112;2023-06-14T15:12:43;29.60;57.90
49829;DHT22;35723;51.194;5.112;2023-06-14T15:15:09;29.50;57.50
49829;DHT22;35723;51.194;5.112;2023-06-14T15:17:35;29.50;57.50
49829;DHT22;35723;51.194;5.112;2023-06-14T15:20:01;29.50;57.40
49829;DHT22;35723;51.194;5.112;2023-06-14T15:22:26;29.50;57.80
49829;DHT22;35723;51.194;5.112;2023-06-14T15:24:52;29.60;57.50
49829;DHT22;35723;51.194;5.112;2023-06-14T15:27:18;29.50;57.70
49829;DHT22;35723;51.194;5.112;2023-06-14T15:29:44;29.50;57.90
49829;DHT22;35723;51.194;5.112;2023-06-14T15:32:10;29.50;57.00
49829;DHT22;35723;51.194;5.112;2023-06-14T15:34:36;29.50;57.40
49829;DHT22;35723;51.194;5.112;2023-06-14T15:37:03;29.40;57.20
49829;DHT22;35723;51.194;5.112;2023-06-14T15:39:29;29.40;57.50
49829;DHT22;35723;51.194;5.112;2023-06-14T15:41:58;29.50;57.40
49829;DHT22;35723;51.194;5.112;2023-06-14T15:44:26;29.40;56.90